TIME NOW
World current time now,
CALENDAR
Calendar monthly, yearly
login GOLD PRICE, RATE
login HOROSCOPE
login DICTIONARIES, LISTS
login SCIENCE EDUCATION RELIGION
login FINANCE, BUSINESS
login WORLD COUNTRIES, WIKI

World currency exchange rate, foreign rate

Eritrean nakfa currency exchange rate

Countries (Yahoo finance)

COUNTRY AND WIKI
Eritrea Country flag er  ERN 

1 ERN exchange rate

CURRENCYRATEBIDASKDATE
 AED  Emirati dirham Country flag ae  0.2405   0.2405   0.2405    3/22/2017   10:01am 
 ARS  Argentine peso Country flag ar  1.0229   1.0229   1.0232    3/22/2017   3:21am 
 AUD  Australian dollar Country flag au  0.0855   0.0855   0.0855    3/22/2017   10:46am 
 AZN  Azerbaijani manat Country flag az  0.1126   0.1126   0.1127    3/22/2017   3:21am 
 BGN  Bulgarian lev Country flag bg  0.1186   0.1186   N/A    3/22/2017   3:21am 
 BHD  Bahraini dinar Country flag bh  0.0247   0.0247   0.0247    3/22/2017   7:50am 
 BRL  Brazilian real Country flag br  0.2020   0.2020   0.2022    3/22/2017   10:00am 
 BYR  Belarusian ruble Country flag by  1311.0674   1311.0674   1312.7046    3/22/2017   3:21am 
 CAD  Canadian dollar Country flag ca  0.0877   0.0877   0.0878    3/22/2017   10:47am 
 CHF  Swiss franc Country flag ch  0.0650   0.0650   0.0651    3/22/2017   10:47am 
 CLP  Chilean peso Country flag cl  43.1663   43.1663   43.1762    3/22/2017   10:00am 
 CNY  Chinese yuan Renminbi Country flag cn  0.4510   0.4510   0.4510    3/22/2017   10:47am 
 CZK  Czech koruna Country flag cz  1.6399   1.6399   1.6400    3/22/2017   10:47am 
 DKK  Danish krone Country flag dk  0.4514   0.4514   0.4514    3/22/2017   10:47am 
 EGP  Egyptian pound Country flag eg  1.1853   1.1853   1.1952    3/22/2017   3:21am 
 EUR  Euro Country flag eu  0.0607   0.0607   0.0607    3/22/2017   10:47am 
 GBP  British pound Country flag gb  0.0526   0.0526   0.0526    3/22/2017   10:47am 
 GEL  Georgian lari Country flag ge  0.1597   0.1597   0.1610    3/22/2017   3:21am 
 HKD  Hong Kong dollar Country flag hk  0.5087   0.5087   0.5087    3/22/2017   10:46am 
 HRK  Croatian cuna Country flag hr  0.4495   0.4495   0.4501    3/22/2017   10:47am 
 HUF  Hungarian forint Country flag hu  18.7132   18.7132   18.7263    3/22/2017   10:47am 
 ILS  Israeli shekel Country flag il  0.2394   0.2394   0.2400    3/22/2017   10:47am 
 INR  Indian rupee Country flag in  4.2881   4.2881   4.2888    3/22/2017   10:46am 
 ISK  Icelandic krona Country flag is  7.1546   7.1546   7.1873    3/22/2017   3:21am 
 JPY  Japanese yen Country flag jp  7.2859   7.2859   7.2862    3/22/2017   10:47am 
 KRW  South Korean won Country flag kr  73.4460   73.4460   73.5115    3/22/2017   10:46am 
 KZT  Kazakh tenge Country flag kz  20.6536   20.6536   20.6568    3/22/2017   3:21am 
 LKR  Sri Lankan rupee Country flag lk  9.9260   9.9260   9.9594    3/22/2017   10:25am 
 MAD  Moroccan dirham Country flag ma  0.6530   0.6530   0.6537    3/22/2017   10:47am 
 MDL  Moldovan leu Country flag md  1.2728   1.2728   1.2793    3/22/2017   8:34am 
 MKD  Macedonia denar Country flag mk  3.7158   3.7158   3.7354    3/22/2017   10:46am 
 MXN  Mexican peso Country flag mx  1.2568   1.2568   1.2570    3/22/2017   10:47am 
 MZN  Mozambican metical Country flag mz  4.6130   4.6130   4.6785    3/22/2017   3:21am 
 NOK  Norwegian krone Country flag no  0.5573   0.5573   0.5574    3/22/2017   10:47am 
 NZD  New Zealand dollar Country flag nz  0.0932   0.0932   0.0933    3/22/2017   10:46am 
 PLN  Polish zloty Country flag pl  0.2597   0.2597   0.2598    3/22/2017   10:47am 
 QAR  Qatari riyal Country flag qa  0.2384   0.2384   0.2385    3/22/2017   8:32am 
 RON  Romanian leu Country flag ro  0.2766   0.2766   0.2774    3/22/2017   10:46am 
 RSD  Serbian dinar Country flag rs  7.4882   7.4882   7.5332    3/22/2017   8:30am 
 RUB  Russian ruble Country flag ru  3.8013   3.8013   3.8017    3/22/2017   10:47am 
 SAR  Saudi riyal Country flag sa  0.2456   0.2456   0.2456    3/22/2017   8:41am 
 SGD  Singapore dollar Country flag sg  0.0917   0.0917   0.0917    3/22/2017   10:47am 
 THB  Thai baht Country flag th  2.2692   2.2692   2.2724    3/22/2017   10:47am 
 TMT  Turkmenistan manat Country flag tm  0.2227   0.2227   0.2358    3/22/2017   3:21am 
 TND  Tunisian dinar Country flag tn  0.1502   0.1502   0.1504    3/22/2017   10:47am 
 TRY  Turkish lira Country flag tr  0.2376   0.2376   0.2377    3/22/2017   10:47am 
 TWD  Taiwanese dollar Country flag tw  1.9968   1.9968   2.0033    3/22/2017   10:47am 
 UAH  Ukrainian hryvnia Country flag ua  1.7610   1.7610   1.7773    3/22/2017   7:53am 
 USD  United States dollar Country flag us  0.0650   0.0650   0.0651    3/22/2017   3:50am 
 YER  Yemeni rial Country flag ye  16.3687   16.3687   16.3752    3/22/2017   3:21am 
 ZAR  South African rand Country flag za  0.8257   0.8257   0.8264    3/22/2017   10:47am 
 ZWL  Zimbabwean dollar Country flag zw  21.1103   21.1103   21.3215    3/22/2017   3:21am 



 Use username: Guest, Anonymous, Programmer






QUOTES:
Never speak ill of yourself; your friends will always say enough on that subject.
Anonymous
Wild intelligence abhors any narrow world; and the world of women must stay narrow, or the woman is an outlaw. No woman could be Nietzsche or Rimbaud without ending up in a whorehouse or lobotomized.
Andrea Dworkin
Success action is cumulative in its results.
Wallace D. Wattles